ADDS METAR Data INFO
IDs: Format: Raw Decoded Include TAF

Data at: 0341 UTC 20 Feb 2018

KARB 200253Z AUTO 19008KT 10SM FEW060 SCT095 SCT120 12/12 A2995 RMK AO2 PK WND 19027/0211 RAE37 SLP145 P0002 60007 T01220117 51005
KARB 200153Z AUTO 19015G23KT 10SM -RA FEW070 OVC090 12/12 A2994 RMK AO2 SLP144 P0005 T01170117
KARB 200121Z AUTO 19012G19KT 6SM -RA BR SCT015 SCT070 OVC090 11/11 A2995 RMK AO2 P0003 T01110111
KARB 200053Z AUTO 19006KT 6SM -RA BR OVC022 11/11 A2995 RMK AO2 RAB52 SLP147 P0000 T01060106
KARB 200043Z AUTO 18007KT 6SM BR BKN024 OVC055 11/11 A2995 RMK AO2 T01060106
KARB 192353Z 17009KT 7SM FEW007 OVC044 11/11 A2993 RMK AO2 RAE34B39E51 SLP141 P0011 60037 T01060106 10111 20039 51016
KARB 192336Z 17009KT 3SM BR BKN005 BKN011 OVC045 11/11 A2993 RMK AO2 RAE34 P0010 T01060106
KARB 192328Z 17008KT 1 1/2SM -RA BR BKN005 OVC011 11/11 A2993 RMK AO2 VIS 3/4V3 CIG 002V008 P0010 T01060106
KARB 192323Z 17008KT 3/4SM RA BR OVC005 11/11 A2992 RMK AO2 CIG 002V010 P0010 T01060106
KARB 192253Z 19006KT 1/4SM -RA FG OVC002 10/10 A2992 RMK AO2 RAE2157B53 SLP137 P0000 T01000100
KARB 192153Z 18005KT 1/4SM -RA FG VV003 08/08 A2990 RMK AO2 RAB10 SLP130 P0003 T00830083
KARB 192053Z 18005KT 1/4SM FG VV002 07/07 A2988 RMK AO2 RAE52 SLP125 P0004 60023 T00670067 58012
KARB 191953Z 00000KT 1/2SM -RA FG OVC003 04/04 A2990 RMK AO2 SLP132 P0010 T00440044
KARB 191950Z 00000KT 1/2SM -RA FG OVC003 04/04 A2990 RMK AO2 P0010
KARB 191942Z 00000KT 1SM -RA BR OVC003 04/04 A2990 RMK AO2 P0009 T00390039
KARB 191930Z 00000KT 1 3/4SM -RA BR OVC003 04/04 A2991 RMK AO2 P0007 T00390039
KARB 191853Z 08004KT 1 1/4SM -RA BR OVC002 04/04 A2992 RMK AO2 SLP139 P0009 T00390039
KARB 191848Z 07004KT 1 1/2SM -RA BR OVC002 04/04 A2992 RMK AO2 P0009
KARB 191841Z 07004KT 2SM -RA BR OVC002 04/04 A2993 RMK AO2 P0008 T00440044
KARB 191828Z 00000KT 2 1/2SM -RA BR OVC004 04/04 A2994 RMK AO2 P0008 T00390039
KARB 191808Z 06003KT 1 1/2SM RA BR OVC006 04/04 A2995 RMK AO2 P0004 T00390039
KARB 191801Z 07003KT 1/2SM RA FG VV005 04/03 A2995 RMK AO2 PRESFR P0003 T00390033
KARB 191753Z 00000KT 1/4SM RA FG VV004 03/03 A2996 RMK AO2 PRESFR SLP152 P0012 60014 T00330033 10039 20006 58008
KARB 191748Z 00000KT 1/4SM RA FG VV004 04/03 A2997 RMK AO2 P0010
KARB 191653Z 00000KT 1/4SM -RA FG VV003 03/03 A2999 RMK AO2 UPB28E37RAB37 SLP165 P0002 T00330033
KARB 191553Z 17003KT 1/4SM FG VV002 02/02 A2998 RMK AO2 SLP161 T00220022
KARB 191520Z 20006KT 3/4SM BR OVC002 02/02 A3000 RMK AO2 T00220022
KARB 191500Z 17003KT 1 1/4SM BR OVC002 02/02 A2998 RMK AO2 T00220022
KARB 191453Z 18004KT 1 1/2SM BR OVC002 02/02 A2998 RMK AO2 SLP159 T00220022 50001
KARB 191443Z 19003KT 1 3/4SM BR OVC002 02/02 A2998 RMK AO2 T00170017
KARB 191424Z 15005KT 2SM BR OVC002 02/02 A2999 RMK AO2 T00170017
KARB 191353Z 16003KT 1 1/2SM BR OVC003 01/01 A2999 RMK AO2 SLP164 T00110011
KARB 191307Z 14003KT 1SM BR OVC003 01/01 A2999 RMK AO2 T00060006
KARB 191253Z 00000KT 1SM BR OVC004 01/01 A2998 RMK AO2 CIG 002V006 SLP160 T00060006
KARB 191248Z 00000KT 1 1/4SM BR OVC004 01/01 A2997 RMK AO2 CIG 002V008
KARB 191226Z AUTO 15003KT 2 1/2SM BR BKN008 OVC015 01/00 A2997 RMK AO2 T00060000
KARB 191209Z AUTO 12003KT 2 1/2SM BR SCT010 BKN014 OVC026 01/00 A2997 RMK AO2 T00060000
KARB 191153Z AUTO 15004KT 9SM FEW018 BKN026 OVC039 01/M01 A2998 RMK AO2 RAE16 SLP159 P0001 60001 70001 T00061006 10006 21011 58008
KARB 191053Z AUTO VRB03KT 7SM -RA OVC090 01/M01 A2998 RMK AO2 UPB03E23B44E50RAB50 SLP162 P0000 T00061011
KARB 190953Z AUTO 12004KT 10SM OVC039 01/M02 A3000 RMK AO2 SLP168 T00061017
KARB 190853Z AUTO 11003KT 10SM OVC035 01/M02 A3000 RMK AO2 SLP167 T00061017 56021
KARB 190753Z AUTO 11005KT 10SM BKN065 00/M02 A3000 RMK AO2 SLP168 T00001022
KARB 190653Z AUTO 13005KT 10SM CLR M01/M03 A3003 RMK AO2 SLP178 T10061028
KARB 190553Z AUTO 15003KT 10SM CLR M01/M03 A3006 RMK AO2 SLP189 T10061028 11006 21011 55024
KARB 190453Z AUTO 13008KT 10SM CLR M01/M03 A3006 RMK AO2 SLP188 T10061028 400061050
KARB 190353Z AUTO 11007KT 8SM CLR M01/M03 A3010 RMK AO2 SLP203 T10061028
KARB 190253Z AUTO 10006KT 7SM CLR M01/M03 A3014 RMK AO2 SLP214 T10061028 56027
KARB 190153Z AUTO 11005KT 7SM CLR M01/M03 A3016 RMK AO2 SLP223 T10061028
KARB 190053Z AUTO 12005KT 8SM CLR M01/M03 A3018 RMK AO2 SLP231 T10061028
KARB 182353Z 10004KT 8SM CLR M01/M04 A3022 RMK AO2 SLP243 T10061039 10000 21011 55019
KARB 182253Z 00000KT 6SM HZ CLR M01/M03 A3022 RMK AO2 SLP242 T10061033
KARB 182153Z 13009KT 7SM CLR 00/M03 A3023 RMK AO2 SLP246 T00001033
KARB 182053Z 15010KT 8SM FEW017 M01/M04 A3028 RMK AO2 SLP263 T10061039 58006
KARB 182033Z 16010KT 9SM SCT017 M01/M04 A3028 RMK AO2 T10061039
KARB 181953Z 16012KT 9SM OVC017 00/M04 A3029 RMK AO2 SLP268 T00001039
KARB 181915Z 17014G20KT 10SM BKN018 00/M04 A3030 RMK AO2 T00001039
KARB 181853Z 17016KT 10SM FEW019 00/M04 A3030 RMK AO2 SLP270 T00001039
KARB 181753Z 15012KT 10SM FEW021 00/M04 A3030 RMK AO2 SLP270 T00001044 10006 21050 55008
KARB 181653Z 17010KT 10SM CLR 00/M05 A3029 RMK AO2 SLP269 T00001050
KARB 181553Z 16006KT 10SM CLR 00/M05 A3030 RMK AO2 SLP271 T00001050